Time;durP1;ratioP1;P1;durP2;ratioP2;P2;SDS_P1;SDS_P2;PMS_P1;PMS_P2;Temp;Humidity;BMP_temperature;BMP_pressure;BME280_temperature;BME280_humidity;BME280_pressure;Samples;Min_cycle;Max_cycle;Signal;HPM_P1;HPM_P2
2022/12/01 00:01:20;;;;;;;0.50;0.10;;;7.80;57.20;;;;;;6157127;23;20405;-77
2022/12/01 00:03:48;;;;;;;0.60;0.20;;;7.70;54.20;;;;;;6155449;23;20771;-77
2022/12/01 00:06:18;;;;;;;8.10;7.33;;;7.70;58.60;;;;;;6156259;23;20412;-76
2022/12/01 00:11:31;;;;;;;0.50;0.10;;;7.60;57.80;;;;;;6155753;23;20413;-77
2022/12/01 00:13:59;;;;;;;0.50;0.10;;;7.50;57.40;;;;;;6155169;23;20461;-76
2022/12/01 00:16:26;;;;;;;0.50;0.10;;;7.50;64.20;;;;;;6154837;23;20797;-76
2022/12/01 00:18:54;;;;;;;0.50;0.10;;;7.50;70.00;;;;;;6155444;23;20436;-76
2022/12/01 00:21:24;;;;;;;0.50;0.10;;;7.60;74.00;;;;;;6155358;23;20408;-76
2022/12/01 00:23:55;;;;;;;0.50;0.10;;;7.50;69.60;;;;;;6155023;23;20433;-76
2022/12/01 00:26:24;;;;;;;0.60;0.30;;;;;;;;;;6156134;23;20468;-76
2022/12/01 00:28:53;;;;;;;0.50;0.10;;;7.50;66.90;;;;;;6156576;23;20406;-74
2022/12/01 00:31:22;;;;;;;0.50;0.10;;;7.40;60.50;;;;;;6158689;23;20408;-76
2022/12/01 00:33:50;;;;;;;0.60;0.20;;;7.40;59.50;;;;;;6156366;23;20809;-75
2022/12/01 00:36:18;;;;;;;0.50;0.10;;;7.40;58.50;;;;;;6157014;23;20514;-76
2022/12/01 00:38:46;;;;;;;0.50;0.10;;;7.40;54.50;;;;;;6156470;23;20409;-75
2022/12/01 00:41:16;;;;;;;0.60;0.30;;;7.40;61.70;;;;;;6155913;23;20449;-75
2022/12/01 00:43:44;;;;;;;0.50;0.10;;;7.40;56.90;;;;;;6155800;23;20429;-76
2022/12/01 00:46:11;;;;;;;0.50;0.20;;;7.40;61.90;;;;;;6155100;23;20444;-77
2022/12/01 00:48:39;;;;;;;0.50;0.10;;;7.50;56.30;;;;;;6155462;23;20428;-76
2022/12/01 00:51:07;;;;;;;0.50;0.10;;;7.40;50.00;;;;;;6155134;23;20464;-76
2022/12/01 00:53:35;;;;;;;0.77;0.77;;;7.40;35.50;;;;;;6155481;23;20898;-75
2022/12/01 00:56:03;;;;;;;0.50;0.10;;;7.30;39.20;;;;;;6153725;23;20455;-75
2022/12/01 00:58:32;;;;;;;1.27;1.17;;;7.30;37.10;;;;;;6152990;23;20415;-75
2022/12/01 05:00:52;;;;;;;0.50;0.10;;;;;;;;;;6072244;23;20521;-79
2022/12/01 05:03:20;;;;;;;0.57;0.37;;;7.10;1.00;;;;;;6145311;23;20417;-79
2022/12/01 05:05:48;;;;;;;0.50;0.10;;;7.00;1.00;;;;;;6145279;23;20463;-79
2022/12/01 05:08:16;;;;;;;0.60;0.53;;;7.00;1.00;;;;;;6145053;23;20422;-78
2022/12/01 05:10:45;;;;;;;0.50;0.10;;;7.00;1.00;;;;;;6142022;23;20413;-80
2022/12/01 05:13:13;;;;;;;0.50;0.10;;;7.00;1.00;;;;;;6138743;23;20425;-77
2022/12/01 05:15:41;;;;;;;0.50;0.10;;;7.00;1.00;;;;;;6139604;23;20394;-78
2022/12/01 05:18:10;;;;;;;0.50;0.10;;;;;;;;;;6139678;23;20993;-79
2022/12/01 05:20:56;;;;;;;0.50;0.10;;;;;;;;;;6141927;23;20408;-77
2022/12/01 05:23:24;;;;;;;0.50;0.10;;;7.00;1.00;;;;;;6125100;23;20394;-74
2022/12/01 05:25:51;;;;;;;0.50;0.10;;;6.90;1.00;;;;;;6124953;23;20544;-74
2022/12/01 05:28:19;;;;;;;0.50;0.10;;;6.90;1.00;;;;;;6125281;23;20403;-74
2022/12/01 05:30:48;;;;;;;2.37;2.17;;;6.90;1.00;;;;;;6124839;23;20406;-75
2022/12/01 05:33:17;;;;;;;2.60;1.03;;;6.90;1.00;;;;;;6124873;23;20410;-75
2022/12/01 05:35:45;;;;;;;0.50;0.10;;;6.90;1.00;;;;;;6125636;23;20437;-74
2022/12/01 05:38:13;;;;;;;0.50;0.10;;;6.90;1.00;;;;;;6126960;23;20568;-77
2022/12/01 05:40:41;;;;;;;0.50;0.10;;;6.90;1.00;;;;;;6127586;23;20460;-76
2022/12/01 05:43:09;;;;;;;0.50;0.20;;;6.90;1.00;;;;;;6126494;23;20414;-77
2022/12/01 05:45:36;;;;;;;2.40;1.17;;;6.90;1.00;;;;;;6126573;23;20445;-77
2022/12/01 05:48:05;;;;;;;0.60;0.60;;;6.90;1.00;;;;;;6125476;23;20406;-76
2022/12/01 05:50:37;;;;;;;0.50;0.10;;;6.90;1.00;;;;;;6124421;23;20882;-75
2022/12/01 05:53:05;;;;;;;0.50;0.20;;;6.90;1.00;;;;;;6123726;23;21132;-75
2022/12/01 05:55:33;;;;;;;0.50;0.10;;;6.90;1.00;;;;;;6125572;23;20410;-76
2022/12/01 05:58:01;;;;;;;1.47;0.37;;;6.90;1.00;;;;;;6124677;23;20414;-76
2022/12/01 06:00:29;;;;;;;0.50;0.10;;;6.90;1.00;;;;;;6125130;23;20417;-76
2022/12/01 06:02:56;;;;;;;0.50;0.10;;;6.90;1.00;;;;;;6123830;23;20907;-74
2022/12/01 06:05:24;;;;;;;0.50;0.20;;;6.90;1.00;;;;;;6124534;23;20441;-75
2022/12/01 06:07:53;;;;;;;0.50;0.23;;;6.90;1.00;;;;;;6125764;23;20468;-74
2022/12/01 06:10:22;;;;;;;0.50;0.10;;;6.90;1.00;;;;;;6125050;23;20445;-73
2022/12/01 06:12:49;;;;;;;0.50;0.10;;;6.90;1.00;;;;;;6123979;23;20485;-74
2022/12/01 06:15:17;;;;;;;0.50;0.20;;;6.90;1.00;;;;;;6124011;23;20798;-74
2022/12/01 06:17:45;;;;;;;0.50;0.10;;;6.90;1.00;;;;;;6124211;23;20414;-74
2022/12/01 06:20:13;;;;;;;0.50;0.10;;;6.90;1.00;;;;;;6124352;23;20406;-76
2022/12/01 06:22:41;;;;;;;0.93;0.93;;;6.90;1.00;;;;;;6126276;23;20489;-75
2022/12/01 06:25:11;;;;;;;1.60;1.50;;;6.90;1.00;;;;;;6126107;23;20410;-74
2022/12/01 06:27:38;;;;;;;0.90;0.60;;;6.90;1.00;;;;;;6125157;23;20957;-75
2022/12/01 06:30:07;;;;;;;0.57;0.20;;;7.00;1.00;;;;;;6125207;23;20953;-74
2022/12/01 06:32:36;;;;;;;3.43;3.23;;;6.90;1.00;;;;;;6123951;23;20430;-76
2022/12/01 06:35:04;;;;;;;0.60;0.37;;;6.90;1.00;;;;;;6124059;23;20859;-75
2022/12/01 06:37:32;;;;;;;0.50;0.10;;;6.80;1.00;;;;;;6123735;23;20414;-76
2022/12/01 06:39:59;;;;;;;0.50;0.10;;;6.70;1.00;;;;;;6124596;23;20410;-76
2022/12/01 06:42:31;;;;;;;0.50;0.10;;;6.70;1.00;;;;;;6126477;23;20422;-75
2022/12/01 06:44:59;;;;;;;0.50;0.10;;;6.70;1.00;;;;;;6125029;23;20405;-76
2022/12/01 06:47:27;;;;;;;0.50;0.10;;;6.60;1.00;;;;;;6124499;23;20563;-76
2022/12/01 06:49:55;;;;;;;0.60;0.57;;;6.60;1.00;;;;;;6124055;23;20414;-75
2022/12/01 06:52:23;;;;;;;0.50;0.10;;;6.60;1.00;;;;;;6123350;23;20453;-76
2022/12/01 06:54:51;;;;;;;0.50;0.20;;;6.60;1.00;;;;;;6122387;23;20414;-76
2022/12/01 06:57:19;;;;;;;0.50;0.10;;;6.60;1.00;;;;;;6124028;23;20414;-76
2022/12/01 06:59:48;;;;;;;0.50;0.10;;;6.60;1.00;;;;;;6124074;23;20406;-76
2022/12/01 07:02:17;;;;;;;0.50;0.10;;;6.70;1.00;;;;;;6124092;23;20477;-76
2022/12/01 07:04:45;;;;;;;0.93;0.93;;;6.70;1.00;;;;;;6125278;23;20452;-76
2022/12/01 07:07:13;;;;;;;0.50;0.10;;;;;;;;;;6125502;23;20437;-76
2022/12/01 07:09:41;;;;;;;0.50;0.10;;;6.60;1.00;;;;;;6126352;23;20410;-76
2022/12/01 07:12:09;;;;;;;0.50;0.10;;;6.60;1.00;;;;;;6126758;23;20433;-76
2022/12/01 07:14:37;;;;;;;0.93;0.93;;;6.50;1.00;;;;;;6125920;23;20461;-76
2022/12/01 07:17:06;;;;;;;0.60;0.40;;;;;;;;;;6127196;23;20457;-76
2022/12/01 07:19:34;;;;;;;0.50;0.10;;;6.40;1.00;;;;;;6126234;23;20410;-76
2022/12/01 07:22:02;;;;;;;0.50;0.10;;;6.40;1.00;;;;;;6125224;23;20508;-76
2022/12/01 07:24:30;;;;;;;0.50;0.10;;;6.30;1.00;;;;;;6126678;23;21087;-76
2022/12/01 07:26:58;;;;;;;1.47;0.70;;;6.30;1.00;;;;;;6127213;23;20448;-76
2022/12/01 07:29:26;;;;;;;0.60;0.10;;;6.30;1.00;;;;;;6126681;23;20392;-76
2022/12/01 07:31:54;;;;;;;0.50;0.10;;;6.30;1.00;;;;;;6126370;23;20425;-76
2022/12/01 07:34:23;;;;;;;0.60;0.10;;;6.30;1.00;;;;;;6125935;23;20406;-76
2022/12/01 07:36:51;;;;;;;0.50;0.10;;;6.30;1.00;;;;;;6126343;23;20461;-77
2022/12/01 07:39:18;;;;;;;0.50;0.10;;;6.30;1.00;;;;;;6126177;23;20461;-76
2022/12/01 07:41:46;;;;;;;0.60;0.20;;;6.30;1.00;;;;;;6126604;23;20763;-75
2022/12/01 07:44:14;;;;;;;0.50;0.10;;;6.30;1.00;;;;;;6124981;23;20498;-75
2022/12/01 07:46:42;;;;;;;0.50;0.10;;;6.30;1.00;;;;;;6126018;23;20468;-76
2022/12/01 07:49:13;;;;;;;1.07;0.87;;;6.30;1.00;;;;;;6126167;23;20406;-76
2022/12/01 07:51:42;;;;;;;1.77;1.67;;;6.20;1.00;;;;;;6125926;23;21012;-77
2022/12/01 07:54:13;;;;;;;0.50;0.20;;;6.20;1.00;;;;;;6126301;23;20405;-75
2022/12/01 07:56:41;;;;;;;0.50;0.10;;;;;;;;;;6125997;23;20919;-76
2022/12/01 07:59:09;;;;;;;0.50;0.20;;;5.90;1.00;;;;;;6126309;23;20406;-75
2022/12/01 08:01:37;;;;;;;0.50;0.20;;;5.80;1.00;;;;;;6124855;23;20430;-76
2022/12/01 08:04:11;;;;;;;0.50;0.10;;;5.80;1.00;;;;;;6125217;23;20390;-76
2022/12/01 08:06:39;;;;;;;0.50;0.10;;;;;;;;;;6125790;23;20752;-75
2022/12/01 08:09:08;;;;;;;1.33;0.73;;;5.90;1.00;;;;;;6125520;23;20410;-76
2022/12/01 08:11:36;;;;;;;0.80;0.63;;;5.90;1.00;;;;;;6123141;23;20425;-75
2022/12/01 08:14:04;;;;;;;33.47;9.53;;;5.90;1.00;;;;;;6125455;23;20387;-75
2022/12/01 08:16:32;;;;;;;8.67;2.00;;;5.90;1.00;;;;;;6122512;23;20756;-75
2022/12/01 08:19:00;;;;;;;1.43;1.33;;;5.90;1.00;;;;;;6124476;23;20410;-76
2022/12/01 08:21:27;;;;;;;1.03;0.87;;;5.80;1.00;;;;;;6123866;23;20434;-77
2022/12/01 08:23:56;;;;;;;2.50;2.40;;;5.80;1.00;;;;;;6124740;23;20769;-76
2022/12/01 08:26:26;;;;;;;5.10;2.73;;;5.80;1.00;;;;;;6121305;23;20446;-76
2022/12/01 08:28:54;;;;;;;0.50;0.10;;;5.80;1.00;;;;;;6125967;23;20386;-76
2022/12/01 08:31:24;;;;;;;0.50;0.30;;;5.80;1.00;;;;;;6123885;23;20425;-75
2022/12/01 08:33:52;;;;;;;5.50;5.07;;;5.80;1.00;;;;;;6124201;23;20406;-75
2022/12/01 08:36:21;;;;;;;0.50;0.10;;;5.80;1.00;;;;;;6125939;23;20390;-77
2022/12/01 08:38:51;;;;;;;0.50;0.10;;;5.90;1.00;;;;;;6125138;23;20406;-76
2022/12/01 08:41:20;;;;;;;2.13;2.03;;;5.90;1.00;;;;;;6125936;23;20477;-76
2022/12/01 08:43:49;;;;;;;0.77;0.77;;;5.90;1.00;;;;;;6125009;23;20481;-76
2022/12/01 08:46:26;;;;;;;0.87;0.87;;;6.00;1.00;;;;;;6125596;23;20398;-76
2022/12/01 08:48:56;;;;;;;0.50;0.10;;;6.10;1.00;;;;;;6125356;23;20406;-77
2022/12/01 08:51:24;;;;;;;0.73;0.73;;;6.10;1.00;;;;;;6128946;23;20505;-77
2022/12/01 08:53:52;;;;;;;2.97;2.83;;;6.10;1.00;;;;;;6128166;23;20402;-76
2022/12/01 08:56:24;;;;;;;0.60;0.20;;;6.00;1.00;;;;;;6126426;23;20413;-76
2022/12/01 08:58:54;;;;;;;2.97;2.70;;;6.00;1.00;;;;;;6125385;23;20410;-76
2022/12/01 09:01:22;;;;;;;0.50;0.10;;;6.10;1.00;;;;;;6125417;23;20514;-76
2022/12/01 09:04:03;;;;;;;0.60;0.53;;;6.10;1.00;;;;;;6125080;23;20410;-77
2022/12/01 09:06:33;;;;;;;0.50;0.10;;;6.20;1.00;;;;;;6126118;23;20500;-77
2022/12/01 09:09:01;;;;;;;0.50;0.10;;;;;;;;;;6126617;23;20495;-77
2022/12/01 09:11:29;;;;;;;0.70;0.40;;;6.30;1.00;;;;;;6125396;23;20492;-77
2022/12/01 09:13:59;;;;;;;1.13;1.03;;;6.30;1.00;;;;;;6122656;23;20428;-77
2022/12/01 09:16:27;;;;;;;0.50;0.10;;;6.40;1.00;;;;;;6126112;23;20406;-77
2022/12/01 09:18:55;;;;;;;7.43;7.13;;;6.40;1.00;;;;;;6126298;23;20402;-77
2022/12/01 09:21:25;;;;;;;0.50;0.10;;;6.60;1.00;;;;;;6124667;23;20982;-77
2022/12/01 09:23:53;;;;;;;0.50;0.20;;;6.60;1.00;;;;;;6124335;23;20405;-76
2022/12/01 09:26:21;;;;;;;2.67;2.57;;;6.70;1.00;;;;;;6125555;23;20414;-77
2022/12/01 09:28:52;;;;;;;2.00;1.90;;;6.70;1.00;;;;;;6125095;23;20452;-76
2022/12/01 09:31:22;;;;;;;0.50;0.10;;;6.80;1.00;;;;;;6123729;23;20493;-76
2022/12/01 09:33:55;;;;;;;3.40;1.20;;;6.70;1.00;;;;;;6123592;23;20812;-77
2022/12/01 09:36:23;;;;;;;2.63;2.43;;;6.80;1.00;;;;;;6124352;23;20417;-77
2022/12/01 09:38:51;;;;;;;0.83;0.77;;;6.70;1.00;;;;;;6125209;23;20402;-76
2022/12/01 09:41:23;;;;;;;2.37;1.13;;;6.60;1.00;;;;;;6124073;23;20495;-76
2022/12/01 09:43:58;;;;;;;0.50;0.10;;;6.60;1.00;;;;;;6124657;23;20418;-76
2022/12/01 09:46:33;;;;;;;0.50;0.10;;;6.50;1.00;;;;;;6124970;23;20421;-77
2022/12/01 09:49:03;;;;;;;2.27;2.07;;;6.60;1.00;;;;;;6124121;23;20949;-76
2022/12/01 09:51:34;;;;;;;0.60;0.53;;;6.50;1.00;;;;;;6124936;23;20432;-77
2022/12/01 09:54:03;;;;;;;4.63;1.50;;;6.60;1.00;;;;;;6124963;23;20438;-76
2022/12/01 09:56:36;;;;;;;1.70;1.60;;;6.60;1.00;;;;;;6136498;23;20484;-77
2022/12/01 09:59:07;;;;;;;3.40;2.63;;;6.50;1.00;;;;;;6126805;23;20903;-76
2022/12/01 10:01:41;;;;;;;0.50;0.10;;;6.40;1.00;;;;;;6125937;23;20424;-77
2022/12/01 10:04:15;;;;;;;0.80;0.30;;;6.40;1.00;;;;;;6126377;23;20414;-76
2022/12/01 10:06:51;;;;;;;0.50;0.10;;;6.50;1.00;;;;;;6127579;23;21170;-77
2022/12/01 10:09:26;;;;;;;3.40;3.27;;;6.60;1.00;;;;;;6126955;23;20512;-77
2022/12/01 10:11:59;;;;;;;1.53;0.93;;;6.50;1.00;;;;;;6126834;23;20453;-77
2022/12/01 10:14:29;;;;;;;1.43;1.23;;;6.50;1.00;;;;;;6125023;23;20736;-77
2022/12/01 10:17:09;;;;;;;1.17;1.00;;;6.50;1.00;;;;;;6125216;23;20460;-77
2022/12/01 10:19:44;;;;;;;4.10;1.67;;;6.50;1.00;;;;;;6124877;23;20405;-77
2022/12/01 10:22:28;;;;;;;2.00;1.90;;;6.50;1.00;;;;;;6124087;23;20444;-76
2022/12/01 10:25:05;;;;;;;0.60;0.30;;;6.50;1.00;;;;;;6124281;23;20906;-77
2022/12/01 10:27:47;;;;;;;3.10;2.90;;;6.70;1.00;;;;;;6124423;23;20453;-76
2022/12/01 10:30:17;;;;;;;0.60;0.20;;;6.80;1.00;;;;;;6124943;23;20937;-76
2022/12/01 10:32:51;;;;;;;1.17;1.17;;;6.90;1.00;;;;;;6123491;23;20424;-77
2022/12/01 10:35:22;;;;;;;0.60;0.40;;;7.00;1.00;;;;;;6124439;23;20406;-77
2022/12/01 10:37:54;;;;;;;0.50;0.10;;;7.10;1.00;;;;;;6123328;23;20402;-76
2022/12/01 10:40:23;;;;;;;0.90;0.47;;;7.10;1.00;;;;;;6126993;23;20843;-73
2022/12/01 10:42:51;;;;;;;2.60;1.27;;;7.00;1.00;;;;;;6125854;23;20460;-74
2022/12/01 10:45:22;;;;;;;0.50;0.10;;;7.20;1.00;;;;;;6126546;23;20480;-75
2022/12/01 10:48:15;;;;;;;0.50;0.10;;;7.20;1.00;;;;;;6126169;23;20473;-74
2022/12/01 10:50:45;;;;;;;0.50;0.10;;;7.40;1.00;;;;;;6126770;23;20489;-77
2022/12/01 10:53:30;;;;;;;0.73;0.67;;;7.40;1.00;;;;;;6126157;23;20406;-76
2022/12/01 10:56:04;;;;;;;0.60;0.50;;;7.40;1.00;;;;;;6126149;23;20416;-71
2022/12/01 10:58:33;;;;;;;3.80;1.13;;;7.40;1.00;;;;;;6126649;23;20410;-76
2022/12/01 11:01:04;;;;;;;1.87;1.77;;;7.50;1.00;;;;;;6124828;23;20486;-76
2022/12/01 11:03:36;;;;;;;0.50;0.10;;;7.40;1.00;;;;;;6130272;23;20449;-76
2022/12/01 11:06:07;;;;;;;0.60;0.40;;;7.40;1.00;;;;;;6128021;23;20409;-75
2022/12/01 11:08:43;;;;;;;1.33;1.23;;;7.40;1.00;;;;;;6125789;23;20433;-76
2022/12/01 11:11:28;;;;;;;0.50;0.10;;;7.30;1.00;;;;;;6131876;23;20430;-79
2022/12/01 11:13:58;;;;;;;0.50;0.20;;;7.20;1.00;;;;;;6139821;23;20409;-79
2022/12/01 11:16:39;;;;;;;0.50;0.20;;;7.20;1.00;;;;;;6132978;23;20494;-79
2022/12/01 11:19:17;;;;;;;0.70;0.20;;;7.30;1.00;;;;;;6130563;23;20681;-80
2022/12/01 11:21:55;;;;;;;1.70;0.67;;;7.30;1.00;;;;;;6127817;23;20480;-77
2022/12/01 11:24:29;;;;;;;0.50;0.10;;;7.30;1.00;;;;;;6128211;23;20401;-77
2022/12/01 11:26:58;;;;;;;0.50;0.10;;;7.30;1.00;;;;;;6128287;23;20669;-77
2022/12/01 11:29:31;;;;;;;1.87;1.03;;;7.30;1.00;;;;;;6132148;23;20442;-77
2022/12/01 11:32:00;;;;;;;1.70;1.60;;;7.30;1.00;;;;;;6128980;23;20465;-76
2022/12/01 11:34:33;;;;;;;0.50;0.10;;;7.30;1.00;;;;;;6131258;23;20412;-77
2022/12/01 11:37:03;;;;;;;0.87;0.87;;;7.30;1.00;;;;;;6127536;23;20414;-76
2022/12/01 11:39:36;;;;;;;0.50;0.10;;;7.20;1.00;;;;;;6127540;23;20394;-77
2022/12/01 11:42:06;;;;;;;8.17;6.43;;;7.20;1.00;;;;;;6135787;23;20429;-77
2022/12/01 11:44:34;;;;;;;0.50;0.10;;;7.20;1.00;;;;;;6134667;23;20474;-78
2022/12/01 11:47:24;;;;;;;0.50;0.20;;;7.10;1.00;;;;;;6133668;23;20425;-79
2022/12/01 11:49:56;;;;;;;0.60;0.53;;;7.20;1.00;;;;;;6132677;23;20873;-77
2022/12/01 11:52:27;;;;;;;1.87;1.07;;;7.20;1.00;;;;;;6129966;23;20457;-77
2022/12/01 11:54:57;;;;;;;0.50;0.10;;;7.20;1.00;;;;;;6131611;23;20410;-77
2022/12/01 11:57:26;;;;;;;0.83;0.83;;;7.30;1.00;;;;;;6131347;23;20401;-77
2022/12/01 12:00:05;;;;;;;2.70;1.30;;;7.30;1.00;;;;;;6129631;23;20780;-77
2022/12/01 12:02:40;;;;;;;1.53;0.87;;;7.40;1.00;;;;;;6129579;23;20429;-77
2022/12/01 12:05:35;;;;;;;0.50;0.10;;;7.30;1.00;;;;;;6134097;23;20405;-78
2022/12/01 12:08:11;;;;;;;6.03;3.47;;;7.20;1.00;;;;;;6137364;23;20406;-78
2022/12/01 12:10:48;;;;;;;3.50;3.30;;;7.20;1.00;;;;;;6133856;23;20736;-77
2022/12/01 12:13:47;;;;;;;0.50;0.20;;;7.20;1.00;;;;;;6130106;23;20738;-76
2022/12/01 12:16:25;;;;;;;0.50;0.20;;;7.20;1.00;;;;;;6127519;23;20473;-76
2022/12/01 12:19:14;;;;;;;1.53;1.17;;;7.20;1.00;;;;;;6127337;23;20379;-77
2022/12/01 12:21:54;;;;;;;0.50;0.30;;;7.10;1.00;;;;;;6127350;23;20950;-77
2022/12/01 12:24:36;;;;;;;0.50;0.10;;;7.10;1.00;;;;;;6126685;23;20893;-77
2022/12/01 12:27:12;;;;;;;0.50;0.20;;;7.10;1.00;;;;;;6127013;23;20389;-77
2022/12/01 12:30:01;;;;;;;0.50;0.10;;;7.20;1.00;;;;;;6131342;23;20452;-78
2022/12/01 12:32:43;;;;;;;4.63;2.43;;;7.20;1.00;;;;;;6131867;23;20430;-76
2022/12/01 12:35:25;;;;;;;0.50;0.10;;;7.20;1.00;;;;;;6128813;23;20445;-77
2022/12/01 12:38:05;;;;;;;0.77;0.77;;;7.40;1.00;;;;;;6129532;23;20386;-77
2022/12/01 12:40:41;;;;;;;0.80;0.53;;;7.50;1.00;;;;;;6138709;23;20440;-77
2022/12/01 12:43:23;;;;;;;5.33;0.80;;;7.50;1.00;;;;;;6142234;23;20405;-76
2022/12/01 12:46:03;;;;;;;0.90;0.80;;;7.50;1.00;;;;;;6134343;23;20416;-77
2022/12/01 12:48:47;;;;;;;0.50;0.10;;;7.70;1.00;;;;;;6132784;23;20410;-78
2022/12/01 12:51:39;;;;;;;0.50;0.10;;;7.70;1.00;;;;;;6128873;23;20426;-78
2022/12/01 12:54:18;;;;;;;0.80;0.57;;;7.70;1.00;;;;;;6130213;23;21123;-77
2022/12/01 12:56:49;;;;;;;1.90;1.80;;;7.80;1.00;;;;;;6130732;23;20406;-78
2022/12/01 12:59:21;;;;;;;0.80;0.50;;;7.90;1.00;;;;;;6129907;23;20414;-77
2022/12/01 13:01:58;;;;;;;0.70;0.63;;;7.90;1.00;;;;;;6128875;23;20520;-77
2022/12/01 13:04:34;;;;;;;0.50;0.10;;;7.90;1.00;;;;;;6130189;23;20433;-77
2022/12/01 13:07:06;;;;;;;1.83;0.80;;;8.00;1.00;;;;;;6129373;23;20405;-78
2022/12/01 13:09:40;;;;;;;0.80;0.77;;;8.00;1.00;;;;;;6129172;23;20766;-77
2022/12/01 13:12:14;;;;;;;1.17;0.63;;;8.00;1.00;;;;;;6128969;23;20449;-77
2022/12/01 13:14:46;;;;;;;1.10;1.10;;;8.00;1.00;;;;;;6138046;23;20379;-76
2022/12/01 13:17:19;;;;;;;3.83;3.10;;;8.00;1.00;;;;;;6140299;23;20412;-77
2022/12/01 13:19:47;;;;;;;2.00;1.90;;;8.00;1.00;;;;;;6139849;23;20403;-77
2022/12/01 13:22:18;;;;;;;0.50;0.20;;;8.00;1.00;;;;;;6128071;23;20533;-77
2022/12/01 13:24:47;;;;;;;4.63;2.17;;;7.90;1.00;;;;;;6126423;23;20408;-76
2022/12/01 13:27:19;;;;;;;0.50;0.10;;;7.80;1.00;;;;;;6127116;23;20536;-76
2022/12/01 13:29:49;;;;;;;0.60;0.43;;;7.70;1.00;;;;;;6125259;23;20426;-76
2022/12/01 13:32:35;;;;;;;2.83;0.93;;;7.60;1.00;;;;;;6125033;23;20430;-75
2022/12/01 13:35:07;;;;;;;1.27;0.87;;;7.50;1.00;;;;;;6124556;23;20417;-75
2022/12/01 13:37:38;;;;;;;0.73;0.73;;;7.50;1.00;;;;;;6125334;23;20743;-75
2022/12/01 13:40:21;;;;;;;0.60;0.40;;;7.40;1.00;;;;;;6124834;23;20409;-76
2022/12/01 13:42:59;;;;;;;0.50;0.10;;;7.40;1.00;;;;;;6124791;23;20448;-75
2022/12/01 13:45:38;;;;;;;0.60;0.43;;;7.30;1.00;;;;;;6125002;23;20390;-75
2022/12/01 13:48:25;;;;;;;0.60;0.27;;;7.30;1.00;;;;;;6125178;23;20410;-74
2022/12/01 13:50:57;;;;;;;0.50;0.10;;;7.30;1.00;;;;;;6127131;23;20450;-77
2022/12/01 13:53:38;;;;;;;0.80;0.67;;;7.30;1.00;;;;;;6126344;23;20746;-74
2022/12/01 13:56:26;;;;;;;0.70;0.40;;;7.30;1.00;;;;;;6124682;23;20420;-74
2022/12/01 13:58:55;;;;;;;0.93;0.60;;;7.20;1.00;;;;;;6125236;23;20406;-75
2022/12/01 14:01:46;;;;;;;0.77;0.77;;;7.20;1.00;;;;;;6125538;23;20793;-75
2022/12/01 14:04:29;;;;;;;2.20;1.23;;;7.20;1.00;;;;;;6124416;23;20406;-75
2022/12/01 14:07:21;;;;;;;0.50;0.10;;;7.20;1.00;;;;;;6124615;23;20390;-75
2022/12/01 14:09:52;;;;;;;1.40;1.30;;;7.20;1.00;;;;;;6122775;23;20445;-76
2022/12/01 14:12:25;;;;;;;3.90;3.03;;;7.20;1.00;;;;;;6124185;23;20433;-75
2022/12/01 14:14:57;;;;;;;2.83;0.83;;;7.10;1.00;;;;;;6123396;23;20406;-75
2022/12/01 14:17:28;;;;;;;0.87;0.47;;;7.10;1.00;;;;;;6124465;23;20414;-75
2022/12/01 14:20:07;;;;;;;2.13;2.03;;;7.10;1.00;;;;;;6121419;23;20489;-76
2022/12/01 14:22:38;;;;;;;0.70;0.40;;;7.00;1.00;;;;;;6123735;23;20445;-75
2022/12/01 14:25:24;;;;;;;9.87;7.47;;;7.00;1.00;;;;;;6124420;23;20902;-75
2022/12/01 14:27:55;;;;;;;0.50;0.10;;;7.00;1.00;;;;;;6123553;23;20489;-76
2022/12/01 14:31:00;;;;;;;0.50;0.10;;;7.00;1.00;;;;;;6123975;23;20442;-75
2022/12/01 14:33:51;;;;;;;0.60;0.40;;;7.00;1.00;;;;;;6125569;23;20473;-76
2022/12/01 14:36:39;;;;;;;0.70;0.63;;;7.00;1.00;;;;;;6126139;23;20406;-76
2022/12/01 14:39:13;;;;;;;1.40;1.30;;;7.00;1.00;;;;;;6126333;23;20499;-77
2022/12/01 14:41:48;;;;;;;0.50;0.10;;;6.90;1.00;;;;;;6125925;23;20481;-76
2022/12/01 14:44:24;;;;;;;2.53;2.33;;;6.90;1.00;;;;;;6125784;23;20420;-75
2022/12/01 14:46:59;;;;;;;2.77;2.67;;;6.90;1.00;;;;;;6125337;23;20390;-75
2022/12/01 14:49:32;;;;;;;2.33;1.63;;;6.90;1.00;;;;;;6125217;23;20489;-76
2022/12/01 14:52:06;;;;;;;0.50;0.10;;;6.90;1.00;;;;;;6125692;23;20426;-75
2022/12/01 14:54:45;;;;;;;0.50;0.10;;;6.90;1.00;;;;;;6127169;23;20406;-76
2022/12/01 14:57:15;;;;;;;0.50;0.10;;;6.90;1.00;;;;;;6128607;23;20409;-75
2022/12/01 14:59:45;;;;;;;0.50;0.10;;;6.90;1.00;;;;;;6133532;23;20378;-75
2022/12/01 15:02:14;;;;;;;4.77;2.43;;;6.90;1.00;;;;;;6130790;23;20430;-75
2022/12/01 15:05:05;;;;;;;0.50;0.10;;;9.10;1.00;;;;;;6126967;23;20504;-75
2022/12/01 15:07:38;;;;;;;0.70;0.53;;;6.80;1.00;;;;;;6125636;23;20410;-76
2022/12/01 15:10:15;;;;;;;0.60;0.30;;;6.70;1.00;;;;;;6125614;23;20461;-76
2022/12/01 15:12:42;;;;;;;1.77;1.00;;;6.70;1.00;;;;;;6124831;23;20484;-75
2022/12/01 15:15:17;;;;;;;0.50;0.10;;;6.70;1.00;;;;;;6125824;23;20413;-76
2022/12/01 15:17:52;;;;;;;2.97;2.33;;;6.70;1.00;;;;;;6125424;23;20465;-76
2022/12/01 15:20:30;;;;;;;1.37;0.90;;;;;;;;;;6125036;23;20401;-76
2022/12/01 15:23:00;;;;;;;0.50;0.10;;;6.60;1.00;;;;;;6123956;23;20417;-76
2022/12/01 15:25:34;;;;;;;0.50;0.20;;;6.60;1.00;;;;;;6126182;23;20406;-75
2022/12/01 15:28:10;;;;;;;0.50;0.10;;;6.60;1.00;;;;;;6127104;23;20431;-76
2022/12/01 15:30:40;;;;;;;0.93;0.93;;;6.50;1.00;;;;;;6126775;23;20426;-75
2022/12/01 15:33:11;;;;;;;0.93;0.93;;;6.50;1.00;;;;;;6126170;23;20485;-74
2022/12/01 15:35:39;;;;;;;4.83;2.23;;;6.50;1.00;;;;;;6127375;23;20735;-75
2022/12/01 15:38:15;;;;;;;0.50;0.20;;;6.50;1.00;;;;;;6127569;23;20414;-76
2022/12/01 15:40:44;;;;;;;0.50;0.10;;;6.50;1.00;;;;;;6126864;23;20961;-75
2022/12/01 15:43:36;;;;;;;3.73;1.27;;;6.50;1.00;;;;;;6127006;23;20853;-75
2022/12/01 15:46:13;;;;;;;0.50;0.20;;;6.50;1.00;;;;;;6127177;23;20394;-75
2022/12/01 15:48:42;;;;;;;5.80;2.43;;;6.40;1.00;;;;;;6127741;23;20402;-76
2022/12/01 15:51:15;;;;;;;0.50;0.20;;;6.40;1.00;;;;;;6127331;23;20446;-74
2022/12/01 15:53:49;;;;;;;2.30;2.10;;;6.40;1.00;;;;;;6126729;23;20409;-76
2022/12/01 15:56:24;;;;;;;2.83;2.73;;;6.40;1.00;;;;;;6126824;23;20413;-76
2022/12/01 15:58:58;;;;;;;0.50;0.10;;;6.40;1.00;;;;;;6127035;23;20788;-75
2022/12/01 16:01:31;;;;;;;0.50;0.10;;;6.40;1.00;;;;;;6126662;23;20426;-75
2022/12/01 16:04:04;;;;;;;0.50;0.10;;;6.40;1.00;;;;;;6126828;23;20434;-75
2022/12/01 16:06:35;;;;;;;0.70;0.70;;;6.40;1.00;;;;;;6126858;23;20410;-74
2022/12/01 16:09:05;;;;;;;10.03;9.27;;;6.40;1.00;;;;;;6135355;23;20719;-75
2022/12/01 16:11:33;;;;;;;17.67;8.30;;;6.40;1.00;;;;;;6126302;23;20519;-76
2022/12/01 16:14:05;;;;;;;0.53;0.27;;;6.40;1.00;;;;;;6124966;23;20402;-76
2022/12/01 16:16:43;;;;;;;1.00;0.57;;;6.30;1.00;;;;;;6127232;23;20457;-79
2022/12/01 16:19:30;;;;;;;0.50;0.10;;;6.40;1.00;;;;;;6127530;23;20748;-76
2022/12/01 16:22:03;;;;;;;0.50;0.20;;;6.40;1.00;;;;;;6125755;23;20433;-77
2022/12/01 16:24:34;;;;;;;1.90;1.40;;;6.40;1.00;;;;;;6126594;23;20410;-76
2022/12/01 16:27:04;;;;;;;0.83;0.70;;;6.30;1.00;;;;;;6127773;23;20393;-75
2022/12/01 16:29:42;;;;;;;0.50;0.20;;;6.20;1.00;;;;;;6126457;23;20436;-74
2022/12/01 16:32:18;;;;;;;5.30;2.47;;;6.20;1.00;;;;;;6126685;23;20446;-78
2022/12/01 16:34:49;;;;;;;2.50;1.30;;;6.20;1.00;;;;;;6126486;23;20386;-78
2022/12/01 16:37:17;;;;;;;1.43;0.50;;;6.20;1.00;;;;;;6125360;23;20425;-78
2022/12/01 16:39:45;;;;;;;1.90;1.80;;;6.20;1.00;;;;;;6126839;23;20410;-75
2022/12/01 16:42:15;;;;;;;2.50;2.27;;;6.10;1.00;;;;;;6127708;23;20422;-77
2022/12/01 16:44:45;;;;;;;2.20;1.73;;;6.10;1.00;;;;;;6127266;23;20436;-76
2022/12/01 16:47:17;;;;;;;1.93;1.23;;;6.10;1.00;;;;;;6129301;23;20744;-77
2022/12/01 16:49:45;;;;;;;1.00;0.90;;;6.10;1.00;;;;;;6132571;23;20387;-77
2022/12/01 16:52:13;;;;;;;0.60;0.40;;;6.10;1.00;;;;;;6127857;23;20452;-79
2022/12/01 16:55:00;;;;;;;2.20;1.37;;;6.10;1.00;;;;;;6125817;23;20460;-77
2022/12/01 16:57:28;;;;;;;1.17;0.77;;;6.10;1.00;;;;;;6126532;23;20910;-77
2022/12/01 16:59:56;;;;;;;1.70;1.60;;;6.10;1.00;;;;;;6127124;23;20416;-76
2022/12/01 17:02:25;;;;;;;0.50;0.30;;;6.10;1.00;;;;;;6126428;23;20492;-75
2022/12/01 17:04:53;;;;;;;1.53;1.43;;;6.00;1.00;;;;;;6126207;23;20449;-79
2022/12/01 17:07:21;;;;;;;0.73;0.70;;;6.00;1.00;;;;;;6126112;23;20461;-79
2022/12/01 17:09:49;;;;;;;7.73;7.43;;;6.00;1.00;;;;;;6126565;23;20541;-78
2022/12/01 17:12:17;;;;;;;0.70;0.23;;;6.10;1.00;;;;;;6129763;23;20437;-80
2022/12/01 17:14:44;;;;;;;0.60;0.20;;;6.00;1.00;;;;;;6129466;23;20409;-77
2022/12/01 17:17:12;;;;;;;0.70;0.30;;;6.00;1.00;;;;;;6126421;23;20468;-77
2022/12/01 17:19:41;;;;;;;0.50;0.10;;;6.00;1.00;;;;;;6127634;23;20433;-77
2022/12/01 17:22:09;;;;;;;0.50;0.10;;;4.40;1.00;;;;;;6125416;23;20458;-76
2022/12/01 17:24:37;;;;;;;1.53;1.43;;;6.00;1.00;;;;;;6125945;23;20496;-76
2022/12/01 17:27:05;;;;;;;2.53;2.33;;;5.90;1.00;;;;;;6125598;23;20433;-77
2022/12/01 17:29:33;;;;;;;0.97;0.97;;;6.00;1.00;;;;;;6125825;23;20712;-77
2022/12/01 17:32:01;;;;;;;9.17;2.13;;;6.00;1.00;;;;;;6125735;23;20446;-76
2022/12/01 17:34:29;;;;;;;1.60;0.97;;;6.00;1.00;;;;;;6126982;23;20791;-77
2022/12/01 17:36:58;;;;;;;0.50;0.10;;;6.00;1.00;;;;;;6125687;23;20895;-75
2022/12/01 17:39:26;;;;;;;0.60;0.40;;;6.00;1.00;;;;;;6125928;23;20402;-75